createdAt,value
2019-05-20T00:00:25.813Z,13.67
2019-05-20T00:03:30.004Z,13.63
2019-05-20T00:06:33.937Z,13.57
2019-05-20T00:09:38.768Z,13.51
2019-05-20T00:12:42.887Z,13.48
2019-05-20T00:15:47.005Z,13.43
2019-05-20T00:18:51.287Z,13.38
2019-05-20T00:21:55.844Z,13.31
2019-05-20T00:25:00.279Z,13.29
2019-05-20T00:28:04.499Z,13.24
2019-05-20T00:31:08.824Z,13.22
2019-05-20T00:34:13.268Z,13.22
2019-05-20T00:37:17.562Z,13.19
2019-05-20T00:40:22.321Z,13.12
2019-05-20T00:43:27.320Z,13.10
2019-05-20T00:46:31.385Z,13.07
2019-05-20T00:49:35.290Z,13.05
2019-05-20T00:52:39.691Z,12.99
2019-05-20T00:55:43.689Z,12.93
2019-05-20T00:58:48.238Z,12.85
2019-05-20T01:01:53.303Z,12.84
2019-05-20T01:04:57.565Z,12.80
2019-05-20T01:08:01.507Z,12.76
2019-05-20T01:11:05.674Z,12.72
2019-05-20T01:14:10.261Z,12.72
2019-05-20T01:17:14.347Z,12.73
2019-05-20T01:20:18.819Z,12.74
2019-05-20T01:23:22.983Z,12.75
2019-05-20T01:26:27.427Z,12.75
2019-05-20T01:29:31.285Z,12.78
2019-05-20T01:32:35.936Z,12.78
2019-05-20T01:35:40.098Z,12.80
2019-05-20T01:38:44.215Z,12.85
2019-05-20T01:41:49.194Z,12.92
2019-05-20T01:44:53.488Z,12.99
2019-05-20T01:47:58.379Z,13.06
2019-05-20T01:51:02.610Z,13.12
2019-05-20T01:54:07.174Z,13.17
2019-05-20T01:57:11.409Z,13.17
2019-05-20T02:00:16.192Z,13.20
2019-05-20T02:03:31.251Z,13.20
2019-05-20T02:06:27.131Z,13.21
2019-05-20T02:09:31.249Z,13.22
2019-05-20T02:12:35.875Z,13.22
2019-05-20T02:15:55.453Z,13.21
2019-05-20T02:19:00.083Z,13.19
2019-05-20T02:22:04.101Z,13.20
2019-05-20T02:25:08.111Z,13.19
2019-05-20T02:28:12.556Z,13.17
2019-05-20T02:31:16.593Z,13.18
2019-05-20T02:34:20.511Z,13.16
2019-05-20T02:37:25.102Z,13.09
2019-05-20T02:40:29.328Z,13.06
2019-05-20T02:43:33.533Z,13.05
2019-05-20T02:46:37.532Z,13.09
2019-05-20T02:49:41.998Z,13.08
2019-05-20T02:52:46.608Z,13.04
2019-05-20T02:55:50.859Z,13.05
2019-05-20T02:58:54.971Z,13.05
2019-05-20T03:01:59.169Z,13.00
2019-05-20T03:05:03.029Z,12.98
2019-05-20T03:08:07.391Z,12.96
2019-05-20T03:11:11.625Z,12.92
2019-05-20T03:14:15.948Z,12.95
2019-05-20T03:17:20.486Z,12.95
2019-05-20T03:20:24.492Z,12.98
2019-05-20T03:23:28.501Z,12.99
2019-05-20T03:26:32.428Z,13.01
2019-05-20T03:29:36.890Z,13.05
2019-05-20T03:32:41.645Z,13.06
2019-05-20T03:35:45.809Z,13.06
2019-05-20T03:38:50.230Z,13.07
2019-05-20T03:41:54.974Z,13.02
2019-05-20T03:44:59.315Z,13.04
2019-05-20T03:48:03.909Z,13.05
2019-05-20T03:51:08.850Z,13.10
2019-05-20T03:54:13.276Z,13.14
2019-05-20T03:57:17.203Z,13.14
2019-05-20T04:00:37.661Z,13.15
2019-05-20T04:03:42.144Z,13.19
2019-05-20T04:06:46.757Z,13.22
2019-05-20T04:09:50.867Z,13.24
2019-05-20T04:12:55.304Z,13.26
2019-05-20T04:16:00.548Z,13.32
2019-05-20T04:19:04.795Z,13.36
2019-05-20T04:22:08.963Z,13.38
2019-05-20T04:25:13.151Z,13.38
2019-05-20T04:28:17.628Z,13.41
2019-05-20T04:31:21.631Z,13.45
2019-05-20T04:34:25.717Z,13.51
2019-05-20T04:37:30.140Z,13.54
2019-05-20T04:40:34.141Z,13.55
2019-05-20T04:43:38.615Z,13.61
2019-05-20T04:46:43.613Z,13.68
2019-05-20T04:49:48.199Z,13.79
2019-05-20T04:52:52.864Z,13.83
2019-05-20T04:55:57.685Z,13.87
2019-05-20T04:59:01.919Z,14.00
2019-05-20T05:02:06.238Z,14.07
2019-05-20T05:05:10.615Z,14.09
2019-05-20T05:08:14.717Z,14.07
2019-05-20T05:11:19.273Z,14.08
2019-05-20T05:14:23.205Z,14.17
2019-05-20T05:17:27.254Z,14.25
2019-05-20T05:20:31.979Z,14.38
2019-05-20T05:23:36.550Z,14.50
2019-05-20T05:26:40.803Z,14.57
2019-05-20T05:29:45.058Z,14.62
2019-05-20T05:32:49.293Z,14.68
2019-05-20T05:35:53.963Z,14.73
2019-05-20T05:38:58.624Z,14.87
2019-05-20T05:42:03.433Z,15.02
2019-05-20T05:45:08.473Z,15.11
2019-05-20T05:48:12.327Z,15.18
2019-05-20T05:51:16.587Z,15.20
2019-05-20T05:54:20.978Z,15.25
2019-05-20T05:57:25.776Z,15.30
2019-05-20T06:00:29.955Z,15.35
2019-05-20T06:03:34.180Z,15.42
2019-05-20T06:06:38.442Z,15.55
2019-05-20T06:09:42.363Z,15.64
2019-05-20T06:12:46.841Z,15.68
2019-05-20T06:15:50.768Z,15.73
2019-05-20T06:18:55.113Z,15.79
2019-05-20T06:21:59.033Z,15.81
2019-05-20T06:25:03.680Z,15.81
2019-05-20T06:28:07.664Z,15.88
2019-05-20T06:31:11.687Z,15.90
2019-05-20T06:34:15.663Z,15.81
2019-05-20T06:37:21.590Z,15.71
2019-05-20T06:40:25.605Z,15.68
2019-05-20T06:43:30.119Z,15.63
2019-05-20T06:46:34.352Z,15.60
2019-05-20T06:49:38.813Z,15.48
2019-05-20T06:52:42.839Z,15.46
2019-05-20T06:55:47.173Z,15.44
2019-05-20T06:58:51.277Z,15.51
2019-05-20T07:01:56.112Z,15.58
2019-05-20T07:05:00.637Z,15.65
2019-05-20T07:08:05.057Z,15.86
2019-05-20T07:11:09.690Z,16.01
2019-05-20T07:14:14.444Z,16.28
2019-05-20T07:17:18.753Z,16.63
2019-05-20T07:20:23.066Z,16.99
2019-05-20T07:23:27.388Z,17.58
2019-05-20T07:26:31.670Z,18.42
2019-05-20T07:29:36.167Z,18.91
2019-05-20T07:32:40.385Z,18.91
2019-05-20T07:35:44.782Z,18.83
2019-05-20T07:38:49.053Z,18.84
2019-05-20T07:41:53.317Z,18.95
2019-05-20T07:44:57.775Z,19.20
2019-05-20T07:48:02.423Z,18.89
2019-05-20T07:51:07.678Z,18.71
2019-05-20T07:54:13.238Z,18.66
2019-05-20T07:57:20.642Z,18.79
2019-05-20T08:00:24.694Z,19.00
2019-05-20T08:03:28.725Z,19.23
2019-05-20T08:06:32.820Z,19.30
2019-05-20T08:09:44.653Z,19.44
2019-05-20T08:12:42.818Z,19.27
2019-05-20T08:15:46.729Z,19.22
2019-05-20T08:18:51.045Z,19.37
2019-05-20T08:21:55.285Z,19.33
2019-05-20T08:24:59.276Z,19.30
2019-05-20T08:28:03.544Z,19.32
2019-05-20T08:31:07.775Z,19.38
2019-05-20T08:34:12.032Z,19.36
2019-05-20T08:37:16.559Z,19.37
2019-05-20T08:40:20.692Z,19.33
2019-05-20T08:43:25.000Z,19.31
2019-05-20T08:46:29.929Z,19.11
2019-05-20T08:49:34.688Z,19.01
2019-05-20T08:52:39.358Z,19.12
2019-05-20T08:55:43.592Z,18.87
2019-05-20T08:58:47.739Z,18.81
2019-05-20T09:01:52.060Z,18.95
2019-05-20T09:04:56.594Z,19.11
2019-05-20T09:08:03.427Z,19.12
2019-05-20T09:11:06.343Z,19.30
2019-05-20T09:14:10.713Z,19.38
2019-05-20T09:17:15.001Z,19.51
2019-05-20T09:20:19.746Z,19.86
2019-05-20T09:23:24.090Z,20.01
2019-05-20T09:26:28.488Z,20.04
2019-05-20T09:29:32.656Z,20.06
2019-05-20T09:32:37.242Z,19.99
2019-05-20T09:35:42.009Z,19.79
2019-05-20T09:38:46.286Z,19.81
2019-05-20T09:41:50.525Z,19.78
2019-05-20T09:44:55.264Z,19.71
2019-05-20T09:47:59.485Z,19.60
2019-05-20T09:51:03.743Z,19.37
2019-05-20T09:54:08.008Z,19.27
2019-05-20T09:57:12.434Z,19.09
2019-05-20T10:00:16.927Z,18.78
2019-05-20T10:03:21.488Z,18.23
2019-05-20T10:06:26.059Z,18.23
2019-05-20T10:09:30.338Z,18.53
2019-05-20T10:12:45.262Z,18.53
2019-05-20T10:15:39.910Z,18.81
2019-05-20T10:18:43.913Z,18.81
2019-05-20T10:21:47.900Z,18.94
2019-05-20T10:24:51.831Z,18.96
2019-05-20T10:27:57.759Z,18.97
2019-05-20T10:31:02.030Z,18.95
2019-05-20T10:34:06.140Z,18.98
2019-05-20T10:37:10.142Z,19.03
2019-05-20T10:40:14.693Z,19.08
2019-05-20T10:43:19.236Z,19.10
2019-05-20T10:46:23.340Z,19.15
2019-05-20T10:49:27.447Z,19.22
2019-05-20T10:52:31.605Z,19.01
2019-05-20T10:55:36.018Z,18.82
2019-05-20T10:58:40.111Z,18.38
2019-05-20T11:01:44.389Z,18.00
2019-05-20T11:04:48.496Z,18.00
2019-05-20T11:07:53.328Z,18.16
2019-05-20T11:10:57.160Z,18.16
2019-05-20T11:14:01.309Z,18.20
2019-05-20T11:17:05.234Z,18.32
2019-05-20T11:20:09.722Z,18.44
2019-05-20T11:23:14.226Z,18.56
2019-05-20T11:26:18.959Z,18.59
2019-05-20T11:29:23.156Z,18.59
2019-05-20T11:32:27.181Z,18.62
2019-05-20T11:35:31.128Z,18.65
2019-05-20T11:38:35.129Z,18.82
2019-05-20T11:41:52.928Z,18.82
2019-05-20T11:44:45.075Z,19.18
2019-05-20T11:47:49.274Z,19.18
2019-05-20T11:50:53.283Z,19.31
2019-05-20T11:53:57.137Z,19.50
2019-05-20T11:57:01.555Z,19.73
2019-05-20T12:00:06.185Z,19.73
2019-05-20T12:03:10.845Z,19.86
2019-05-20T12:06:14.804Z,20.02
2019-05-20T12:09:18.734Z,20.23
2019-05-20T12:12:23.361Z,20.51
2019-05-20T12:15:27.624Z,20.68
2019-05-20T12:18:32.335Z,20.82
2019-05-20T12:21:36.665Z,20.65
2019-05-20T12:24:41.363Z,20.88
2019-05-20T12:27:45.842Z,21.07
2019-05-20T12:30:50.104Z,21.44
2019-05-20T12:33:54.049Z,21.61
2019-05-20T12:36:58.019Z,22.12
2019-05-20T12:40:07.605Z,22.61
2019-05-20T12:43:08.225Z,22.89
2019-05-20T12:46:12.157Z,23.21
2019-05-20T12:49:16.313Z,23.11
2019-05-20T12:52:20.622Z,23.19
2019-05-20T12:55:24.655Z,23.17
2019-05-20T12:58:28.986Z,23.11
2019-05-20T13:01:33.082Z,23.18
2019-05-20T13:04:37.496Z,22.49
2019-05-20T13:07:41.797Z,22.40
2019-05-20T13:10:46.507Z,22.34
2019-05-20T13:13:50.793Z,22.23
2019-05-20T13:16:54.645Z,22.20
2019-05-20T13:19:58.856Z,21.68
2019-05-20T13:23:06.153Z,21.48
2019-05-20T13:26:09.869Z,21.27
2019-05-20T13:29:14.312Z,21.20
2019-05-20T13:32:18.508Z,21.24
2019-05-20T13:35:22.730Z,21.27
2019-05-20T13:38:26.659Z,21.42
2019-05-20T13:41:31.577Z,21.62
2019-05-20T13:44:36.129Z,21.79
2019-05-20T13:47:40.862Z,21.80
2019-05-20T13:50:45.116Z,21.89
2019-05-20T13:53:49.461Z,21.66
2019-05-20T13:56:53.868Z,21.58
2019-05-20T13:59:58.026Z,21.42
2019-05-20T14:03:02.011Z,21.24
2019-05-20T14:06:06.121Z,20.94
2019-05-20T14:09:10.685Z,20.91
2019-05-20T14:12:14.957Z,20.68
2019-05-20T14:15:19.353Z,20.36
2019-05-20T14:18:23.875Z,20.12
2019-05-20T14:21:28.188Z,19.69
2019-05-20T14:24:32.317Z,19.29
2019-05-20T14:27:36.319Z,19.05
2019-05-20T14:30:40.629Z,18.73
2019-05-20T14:33:45.146Z,18.43
2019-05-20T14:36:52.692Z,17.95
2019-05-20T14:39:54.934Z,17.53
2019-05-20T14:42:58.992Z,17.21
2019-05-20T14:46:03.697Z,16.95
2019-05-20T14:49:08.213Z,16.95
2019-05-20T14:52:12.434Z,16.81
2019-05-20T14:55:16.463Z,16.69
2019-05-20T14:58:20.479Z,16.42
2019-05-20T15:01:24.950Z,16.21
2019-05-20T15:04:29.087Z,16.21
2019-05-20T15:07:33.041Z,16.07
2019-05-20T15:10:37.293Z,16.07
2019-05-20T15:13:41.998Z,16.04
2019-05-20T15:16:46.262Z,16.00
2019-05-20T15:19:50.911Z,16.04
2019-05-20T15:22:55.399Z,16.08
2019-05-20T15:25:59.680Z,16.17
2019-05-20T15:29:04.561Z,16.20
2019-05-20T15:32:09.310Z,16.27
2019-05-20T15:35:13.443Z,16.18
2019-05-20T15:38:18.813Z,16.15
2019-05-20T15:41:23.205Z,16.13
2019-05-20T15:44:27.665Z,16.11
2019-05-20T15:47:32.493Z,16.07
2019-05-20T15:50:36.739Z,16.09
2019-05-20T15:53:41.038Z,16.15
2019-05-20T15:56:45.703Z,15.98
2019-05-20T15:59:49.894Z,15.93
2019-05-20T16:02:53.916Z,15.94
2019-05-20T16:06:00.018Z,15.91
2019-05-20T16:09:05.198Z,15.89
2019-05-20T16:12:09.695Z,16.01
2019-05-20T16:15:14.107Z,16.10
2019-05-20T16:18:18.642Z,16.23
2019-05-20T16:21:23.339Z,16.23
2019-05-20T16:24:27.289Z,16.29
2019-05-20T16:27:32.830Z,16.35
2019-05-20T16:30:37.028Z,16.37
2019-05-20T16:33:41.423Z,16.35
2019-05-20T16:36:45.757Z,16.33
2019-05-20T16:39:50.581Z,16.31
2019-05-20T16:42:54.846Z,16.28
2019-05-20T16:45:58.863Z,16.17
2019-05-20T16:49:03.113Z,16.06
2019-05-20T16:52:07.106Z,16.00
2019-05-20T16:55:11.355Z,16.02
2019-05-20T16:58:15.600Z,16.08
2019-05-20T17:01:19.802Z,16.07
2019-05-20T17:04:23.929Z,16.06
2019-05-20T17:07:28.024Z,16.08
2019-05-20T17:10:31.903Z,16.08
2019-05-20T17:13:36.170Z,16.01
2019-05-20T17:16:40.326Z,16.02
2019-05-20T17:19:44.726Z,15.98
2019-05-20T17:22:49.049Z,15.94
2019-05-20T17:25:53.520Z,15.96
2019-05-20T17:28:58.100Z,15.89
2019-05-20T17:32:02.333Z,15.83
2019-05-20T17:35:06.667Z,15.78
2019-05-20T17:38:10.997Z,15.78
2019-05-20T17:41:15.208Z,15.69
2019-05-20T17:44:20.032Z,15.64
2019-05-20T17:47:25.025Z,15.58
2019-05-20T17:50:29.034Z,15.49
2019-05-20T17:53:33.935Z,15.45
2019-05-20T17:56:37.997Z,15.47
2019-05-20T17:59:42.369Z,15.40
2019-05-20T18:02:47.029Z,15.40
2019-05-20T18:05:51.338Z,15.44
2019-05-20T18:08:57.002Z,15.49
2019-05-20T18:12:01.293Z,15.47
2019-05-20T18:15:05.862Z,15.46
2019-05-20T18:18:10.720Z,15.40
2019-05-20T18:21:15.285Z,15.38
2019-05-20T18:24:19.571Z,15.31
2019-05-20T18:27:23.677Z,15.36
2019-05-20T18:30:28.067Z,15.42
2019-05-20T18:33:32.592Z,15.43
2019-05-20T18:36:36.510Z,15.43
2019-05-20T18:39:40.697Z,15.46
2019-05-20T18:42:45.341Z,15.47
2019-05-20T18:45:50.185Z,15.32
2019-05-20T18:48:54.399Z,15.33
2019-05-20T18:51:59.028Z,15.27
2019-05-20T18:55:03.367Z,15.26
2019-05-20T18:58:07.566Z,15.27
2019-05-20T19:01:11.580Z,15.31
2019-05-20T19:04:15.607Z,15.31
2019-05-20T19:07:19.959Z,15.31
2019-05-20T19:10:24.832Z,15.31
2019-05-20T19:13:29.131Z,15.31
2019-05-20T19:16:33.552Z,15.33
2019-05-20T19:19:37.677Z,15.34
2019-05-20T19:22:42.022Z,15.31
2019-05-20T19:25:46.399Z,15.30
2019-05-20T19:28:50.693Z,15.28
2019-05-20T19:32:01.851Z,15.26
2019-05-20T19:35:01.411Z,15.25
2019-05-20T19:38:05.416Z,15.23
2019-05-20T19:41:10.317Z,15.16
2019-05-20T19:44:14.354Z,15.13
2019-05-20T19:47:18.351Z,15.12
2019-05-20T19:50:22.701Z,15.17
2019-05-20T19:53:26.994Z,15.17
2019-05-20T19:56:31.182Z,15.19
2019-05-20T19:59:35.190Z,15.18
2019-05-20T20:02:39.420Z,15.21
2019-05-20T20:05:43.361Z,15.19
2019-05-20T20:08:47.619Z,15.18
2019-05-20T20:11:51.629Z,15.21
2019-05-20T20:14:55.496Z,15.21
2019-05-20T20:18:00.210Z,15.26
2019-05-20T20:21:04.628Z,15.27
2019-05-20T20:24:09.488Z,15.24
2019-05-20T20:27:13.535Z,15.23
2019-05-20T20:30:18.085Z,15.20
2019-05-20T20:33:21.941Z,15.17
2019-05-20T20:36:25.885Z,15.10
2019-05-20T20:39:29.881Z,15.09
2019-05-20T20:42:34.086Z,15.04
2019-05-20T20:45:38.349Z,15.02
2019-05-20T20:48:42.489Z,15.00
2019-05-20T20:51:46.426Z,15.02
2019-05-20T20:54:51.262Z,15.01
2019-05-20T20:57:56.043Z,15.01
2019-05-20T21:01:01.008Z,15.02
2019-05-20T21:04:05.213Z,15.06
2019-05-20T21:07:09.836Z,15.05
2019-05-20T21:10:14.155Z,15.04
2019-05-20T21:13:19.254Z,15.07
2019-05-20T21:16:23.181Z,15.09
2019-05-20T21:19:28.396Z,15.08
2019-05-20T21:22:32.269Z,15.06
2019-05-20T21:25:37.360Z,15.10
2019-05-20T21:28:41.582Z,15.07
2019-05-20T21:31:45.814Z,15.11
2019-05-20T21:34:50.346Z,15.09
2019-05-20T21:37:54.929Z,15.12
2019-05-20T21:40:59.070Z,15.13
2019-05-20T21:44:03.374Z,15.13
2019-05-20T21:47:08.358Z,15.12
2019-05-20T21:50:30.480Z,15.14
2019-05-20T21:53:34.817Z,15.04
2019-05-20T21:56:39.088Z,14.87
2019-05-20T21:59:43.196Z,14.80
2019-05-20T22:02:47.713Z,14.76
2019-05-20T22:05:52.459Z,14.78
2019-05-20T22:08:56.788Z,14.75
2019-05-20T22:12:01.462Z,14.74
2019-05-20T22:15:05.665Z,14.73
2019-05-20T22:18:09.835Z,14.75
2019-05-20T22:21:15.703Z,14.70
2019-05-20T22:24:19.924Z,14.70
2019-05-20T22:27:24.139Z,14.74
2019-05-20T22:30:28.259Z,14.79
2019-05-20T22:33:40.880Z,14.84
2019-05-20T22:36:38.226Z,14.82
2019-05-20T22:39:42.780Z,14.82
2019-05-20T22:42:47.393Z,14.79
2019-05-20T22:45:51.796Z,14.81
2019-05-20T22:48:56.249Z,14.82
2019-05-20T22:52:00.265Z,14.74
2019-05-20T22:55:04.785Z,14.70
2019-05-20T22:58:08.960Z,14.56
2019-05-20T23:01:13.202Z,14.47
2019-05-20T23:04:17.625Z,14.33
2019-05-20T23:07:21.829Z,14.19
2019-05-20T23:10:25.753Z,14.18
2019-05-20T23:13:30.349Z,14.13
2019-05-20T23:16:34.365Z,14.11
2019-05-20T23:19:39.363Z,14.04
2019-05-20T23:22:44.006Z,14.04
2019-05-20T23:25:48.365Z,14.05
2019-05-20T23:28:52.487Z,14.07
2019-05-20T23:31:56.750Z,14.09
2019-05-20T23:35:01.451Z,14.11
2019-05-20T23:38:05.650Z,14.02
2019-05-20T23:41:09.597Z,14.01
2019-05-20T23:44:13.937Z,14.02
2019-05-20T23:47:18.084Z,14.02
2019-05-20T23:50:22.340Z,14.05
2019-05-20T23:53:26.817Z,14.03
2019-05-20T23:56:31.476Z,14.05
2019-05-20T23:59:35.374Z,14.09
